sensor_id;sensor_type;location;lat;lon;timestamp;pressure;altitude;pressure_sealevel;temperature;humidity
26178;BME280;13924;47.670;10.310;2023-02-28T00:00:39;93450;;;-3.5;100.0
26178;BME280;13924;47.670;10.310;2023-02-28T00:15:39;93450;;;-3.5;100.0
26178;BME280;13924;47.670;10.310;2023-02-28T00:30:40;93440;;;-3.5;100.0
26178;BME280;13924;47.670;10.310;2023-02-28T00:45:40;93430;;;-3.6;100.0
26178;BME280;13924;47.670;10.310;2023-02-28T01:00:44;93430;;;-3.6;100.0
26178;BME280;13924;47.670;10.310;2023-02-28T01:15:47;93420;;;-4.0;100.0
26178;BME280;13924;47.670;10.310;2023-02-28T01:30:46;93420;;;-4.0;100.0
26178;BME280;13924;47.670;10.310;2023-02-28T01:45:44;93430;;;-4.1;100.0
26178;BME280;13924;47.670;10.310;2023-02-28T02:00:46;93400;;;-3.9;100.0
26178;BME280;13924;47.670;10.310;2023-02-28T02:01:27;93410;;;-3.9;100.0
26178;BME280;13924;47.670;10.310;2023-02-28T02:15:52;93400;;;-4.0;100.0
26178;BME280;13924;47.670;10.310;2023-02-28T02:31:06;93410;;;-3.7;100.0
26178;BME280;13924;47.670;10.310;2023-02-28T02:45:50;93390;;;-3.7;100.0
26178;BME280;13924;47.670;10.310;2023-02-28T03:00:51;93410;;;-3.7;100.0
26178;BME280;13924;47.670;10.310;2023-02-28T03:15:58;93420;;;-3.7;100.0
26178;BME280;13924;47.670;10.310;2023-02-28T03:30:52;93410;;;-3.8;100.0
26178;BME280;13924;47.670;10.310;2023-02-28T03:45:54;93410;;;-3.8;100.0
26178;BME280;13924;47.670;10.310;2023-02-28T04:00:54;93430;;;-3.8;100.0
26178;BME280;13924;47.670;10.310;2023-02-28T04:15:50;93430;;;-4.2;100.0
26178;BME280;13924;47.670;10.310;2023-02-28T04:30:55;93480;;;-4.2;100.0
26178;BME280;13924;47.670;10.310;2023-02-28T04:45:51;93490;;;-4.3;100.0
26178;BME280;13924;47.670;10.310;2023-02-28T05:01:02;93490;;;-4.3;100.0
26178;BME280;13924;47.670;10.310;2023-02-28T05:15:55;93480;;;-4.1;100.0
26178;BME280;13924;47.670;10.310;2023-02-28T05:30:53;93520;;;-4.2;100.0
26178;BME280;13924;47.670;10.310;2023-02-28T05:45:54;93510;;;-4.2;100.0
26178;BME280;13924;47.670;10.310;2023-02-28T05:55:41;93500;;;-4.2;100.0
26178;BME280;13924;47.670;10.310;2023-02-28T06:10:44;93510;;;-4.1;100.0
26178;BME280;13924;47.670;10.310;2023-02-28T06:25:44;93500;;;-4.3;100.0
26178;BME280;13924;47.670;10.310;2023-02-28T06:40:53;93540;;;-4.0;100.0
26178;BME280;13924;47.670;10.310;2023-02-28T06:55:44;93540;;;-4.2;100.0
26178;BME280;13924;47.670;10.310;2023-02-28T07:10:45;93550;;;-4.2;100.0
26178;BME280;13924;47.670;10.310;2023-02-28T07:25:45;93560;;;-4.2;100.0
26178;BME280;13924;47.670;10.310;2023-02-28T07:40:46;93560;;;-4.2;100.0
26178;BME280;13924;47.670;10.310;2023-02-28T07:55:46;93560;;;-3.9;100.0
26178;BME280;13924;47.670;10.310;2023-02-28T08:10:48;93570;;;-4.1;100.0
26178;BME280;13924;47.670;10.310;2023-02-28T08:25:53;93600;;;-3.8;100.0
26178;BME280;13924;47.670;10.310;2023-02-28T08:40:47;93580;;;-3.5;100.0
26178;BME280;13924;47.670;10.310;2023-02-28T08:55:56;93570;;;-3.0;100.0
26178;BME280;13924;47.670;10.310;2023-02-28T09:10:49;93580;;;-2.7;100.0
26178;BME280;13924;47.670;10.310;2023-02-28T09:25:51;93580;;;-2.9;100.0
26178;BME280;13924;47.670;10.310;2023-02-28T09:40:52;93580;;;-2.3;100.0
26178;BME280;13924;47.670;10.310;2023-02-28T09:55:57;93580;;;-2.3;100.0
26178;BME280;13924;47.670;10.310;2023-02-28T10:10:55;93600;;;-2.3;100.0
26178;BME280;13924;47.670;10.310;2023-02-28T10:25:57;93600;;;-2.1;100.0
26178;BME280;13924;47.670;10.310;2023-02-28T10:41:04;93610;;;-1.7;100.0
26178;BME280;13924;47.670;10.310;2023-02-28T10:55:58;93610;;;-1.2;100.0
26178;BME280;13924;47.670;10.310;2023-02-28T11:10:57;93610;;;-1.4;100.0
26178;BME280;13924;47.670;10.310;2023-02-28T11:25:58;93610;;;-2.0;100.0
26178;BME280;13924;47.670;10.310;2023-02-28T11:41:08;93610;;;-1.5;100.0
26178;BME280;13924;47.670;10.310;2023-02-28T12:11:05;93620;;;-1.9;100.0
26178;BME280;13924;47.670;10.310;2023-02-28T12:26:05;93620;;;-1.8;100.0
26178;BME280;13924;47.670;10.310;2023-02-28T12:41:01;93610;;;-2.0;100.0
26178;BME280;13924;47.670;10.310;2023-02-28T12:56:09;93600;;;-1.6;100.0
26178;BME280;13924;47.670;10.310;2023-02-28T13:11:03;93580;;;-1.5;100.0
26178;BME280;13924;47.670;10.310;2023-02-28T13:25:59;93590;;;-1.6;100.0
26178;BME280;13924;47.670;10.310;2023-02-28T13:43:17;93600;;;-1.7;100.0
26178;BME280;13924;47.670;10.310;2023-02-28T13:56:07;93610;;;-1.9;100.0
26178;BME280;13924;47.670;10.310;2023-02-28T14:11:06;93610;;;-1.9;100.0
26178;BME280;13924;47.670;10.310;2023-02-28T14:26:12;93650;;;-2.4;100.0
26178;BME280;13924;47.670;10.310;2023-02-28T14:41:14;93650;;;-2.4;100.0
26178;BME280;13924;47.670;10.310;2023-02-28T14:56:21;93660;;;-2.1;100.0
26178;BME280;13924;47.670;10.310;2023-02-28T15:11:14;93670;;;-1.9;100.0
26178;BME280;13924;47.670;10.310;2023-02-28T15:26:05;93700;;;-2.3;100.0
26178;BME280;13924;47.670;10.310;2023-02-28T15:41:23;93700;;;-2.3;100.0
26178;BME280;13924;47.670;10.310;2023-02-28T15:56:20;93710;;;-2.2;100.0
26178;BME280;13924;47.670;10.310;2023-02-28T16:11:08;93720;;;-2.4;100.0
26178;BME280;13924;47.670;10.310;2023-02-28T16:26:08;93730;;;-2.3;100.0
26178;BME280;13924;47.670;10.310;2023-02-28T16:41:14;93730;;;-2.3;100.0
26178;BME280;13924;47.670;10.310;2023-02-28T16:56:15;93720;;;-2.3;100.0
26178;BME280;13924;47.670;10.310;2023-02-28T17:11:10;93740;;;-2.4;100.0
26178;BME280;13924;47.670;10.310;2023-02-28T17:26:13;93750;;;-2.2;100.0
26178;BME280;13924;47.670;10.310;2023-02-28T17:41:13;93750;;;-2.2;100.0
26178;BME280;13924;47.670;10.310;2023-02-28T17:56:13;93750;;;-2.3;100.0
26178;BME280;13924;47.670;10.310;2023-02-28T18:11:13;93750;;;-2.3;100.0
26178;BME280;13924;47.670;10.310;2023-02-28T18:26:14;93720;;;-2.5;100.0
26178;BME280;13924;47.670;10.310;2023-02-28T18:41:16;93730;;;-2.5;100.0
26178;BME280;13924;47.670;10.310;2023-02-28T18:56:16;93730;;;-2.4;100.0
26178;BME280;13924;47.670;10.310;2023-02-28T19:11:17;93730;;;-2.3;100.0
26178;BME280;13924;47.670;10.310;2023-02-28T19:26:29;93730;;;-2.3;100.0
26178;BME280;13924;47.670;10.310;2023-02-28T19:41:21;93720;;;-2.2;100.0
26178;BME280;13924;47.670;10.310;2023-02-28T19:56:18;93720;;;-1.9;100.0
26178;BME280;13924;47.670;10.310;2023-02-28T20:11:22;93720;;;-1.9;100.0
26178;BME280;13924;47.670;10.310;2023-02-28T20:26:26;93700;;;-1.9;100.0
26178;BME280;13924;47.670;10.310;2023-02-28T20:41:28;93680;;;-1.9;100.0
26178;BME280;13924;47.670;10.310;2023-02-28T20:56:24;93680;;;-1.9;100.0
26178;BME280;13924;47.670;10.310;2023-02-28T21:11:33;93680;;;-1.8;100.0
26178;BME280;13924;47.670;10.310;2023-02-28T21:26:25;93680;;;-2.0;100.0
26178;BME280;13924;47.670;10.310;2023-02-28T21:41:24;93670;;;-2.0;100.0
26178;BME280;13924;47.670;10.310;2023-02-28T21:56:25;93670;;;-2.0;100.0
26178;BME280;13924;47.670;10.310;2023-02-28T22:11:24;93690;;;-2.1;100.0
26178;BME280;13924;47.670;10.310;2023-02-28T22:26:24;93690;;;-2.0;100.0
26178;BME280;13924;47.670;10.310;2023-02-28T22:41:26;93680;;;-1.9;100.0
26178;BME280;13924;47.670;10.310;2023-02-28T22:56:27;93680;;;-1.9;100.0
26178;BME280;13924;47.670;10.310;2023-02-28T23:00:49;93680;;;-1.9;100.0
26178;BME280;13924;47.670;10.310;2023-02-28T23:15:39;93690;;;-1.8;100.0
26178;BME280;13924;47.670;10.310;2023-02-28T23:30:37;93700;;;-1.8;100.0
26178;BME280;13924;47.670;10.310;2023-02-28T23:45:38;93690;;;-1.8;100.0
